createdAt,value
2023-04-10T00:00:57.058Z,96865.44
2023-04-10T00:03:25.325Z,96860.34
2023-04-10T00:05:54.729Z,96861.25
2023-04-10T00:08:22.787Z,96854.31
2023-04-10T00:10:53.177Z,96858.25
2023-04-10T00:13:21.366Z,96854.78
2023-04-10T00:15:49.536Z,96859.09
2023-04-10T00:18:17.409Z,96856.72
2023-04-10T00:20:45.387Z,96853.84
2023-04-10T00:23:13.108Z,96849.28
2023-04-10T00:25:40.821Z,96838.44
2023-04-10T00:28:09.879Z,96834.97
2023-04-10T00:30:37.633Z,96840.84
2023-04-10T00:33:05.543Z,96835.50
2023-04-10T00:35:33.312Z,96825.34
2023-04-10T00:38:01.038Z,96824.53
2023-04-10T00:40:30.279Z,96815.16
2023-04-10T00:42:58.075Z,96808.47
2023-04-10T00:45:27.422Z,96814.03
2023-04-10T00:47:56.124Z,96818.31
2023-04-10T00:50:24.407Z,96803.34
2023-04-10T00:52:52.647Z,96804.91
2023-04-10T00:55:20.662Z,96803.28
2023-04-10T00:57:49.013Z,96800.63
2023-04-10T01:00:18.290Z,96803.28
2023-04-10T01:02:48.727Z,96794.16
2023-04-10T01:05:17.783Z,96800.81
2023-04-10T01:07:59.557Z,96795.22
2023-04-10T01:10:35.089Z,96798.47
2023-04-10T01:13:12.290Z,96796.28
2023-04-10T01:15:48.844Z,96793.03
2023-04-10T01:18:25.520Z,96796.16
2023-04-10T01:20:53.409Z,96798.03
2023-04-10T01:23:53.056Z,96808.53
2023-04-10T01:26:37.675Z,96808.22
2023-04-10T01:29:09.797Z,96817.25
2023-04-10T01:31:43.798Z,96809.13
2023-04-10T01:34:16.959Z,96806.38
2023-04-10T01:36:50.464Z,96809.22
2023-04-10T01:39:21.141Z,96809.88
2023-04-10T01:41:52.237Z,96792.56
2023-04-10T01:44:26.741Z,96799.50
2023-04-10T01:46:56.413Z,96797.44
2023-04-10T01:49:26.306Z,96789.09
2023-04-10T01:52:01.631Z,96805.09
2023-04-10T01:54:32.716Z,96794.78
2023-04-10T01:57:03.928Z,96802.28
2023-04-10T01:59:39.020Z,96790.50
2023-04-10T02:02:07.807Z,96799.28
2023-04-10T02:04:35.941Z,96790.50
2023-04-10T02:07:05.567Z,96796.63
2023-04-10T02:09:46.300Z,96792.59
2023-04-10T02:12:18.736Z,96785.88
2023-04-10T02:14:49.326Z,96782.56
2023-04-10T02:17:21.908Z,96785.66
2023-04-10T02:19:52.639Z,96775.28
2023-04-10T02:22:20.496Z,96782.25
2023-04-10T02:24:48.557Z,96776.94
2023-04-10T02:27:16.360Z,96779.09
2023-04-10T02:29:44.033Z,96774.34
2023-04-10T02:32:13.088Z,96775.41
2023-04-10T02:34:40.785Z,96788.94
2023-04-10T02:37:08.496Z,96791.78
2023-04-10T02:39:37.094Z,96778.72
2023-04-10T02:42:05.356Z,96777.25
2023-04-10T02:44:33.126Z,96786.03
2023-04-10T02:47:01.035Z,96785.50
2023-04-10T02:49:31.615Z,96788.16
2023-04-10T02:52:00.567Z,96782.81
2023-04-10T02:54:28.336Z,96787.56
2023-04-10T02:56:57.364Z,96795.00
2023-04-10T02:59:25.615Z,96782.41
2023-04-10T03:01:53.481Z,96778.59
2023-04-10T03:04:21.656Z,96779.41
2023-04-10T03:06:50.914Z,96780.59
2023-04-10T03:09:18.642Z,96783.22
2023-04-10T03:11:46.773Z,96786.19
2023-04-10T03:14:14.469Z,96783.50
2023-04-10T03:16:42.223Z,96784.69
2023-04-10T03:19:09.913Z,96776.81
2023-04-10T03:21:37.708Z,96776.25
2023-04-10T03:24:07.242Z,96782.63
2023-04-10T03:26:35.080Z,96777.06
2023-04-10T03:29:02.818Z,96784.56
2023-04-10T03:31:30.977Z,96776.34
2023-04-10T03:34:01.492Z,96779.81
2023-04-10T03:36:29.193Z,96777.94
2023-04-10T03:38:57.033Z,96770.19
2023-04-10T03:41:26.446Z,96771.56
2023-04-10T03:43:54.699Z,96775.34
2023-04-10T03:46:23.093Z,96784.69
2023-04-10T03:48:53.870Z,96782.91
2023-04-10T03:51:23.439Z,96779.66
2023-04-10T03:53:52.226Z,96783.53
2023-04-10T03:56:20.294Z,96788.53
2023-04-10T03:58:49.694Z,96791.28
2023-04-10T04:01:17.552Z,96787.72
2023-04-10T04:03:58.723Z,96784.34
2023-04-10T04:06:56.166Z,96784.09
2023-04-10T04:09:29.012Z,96786.41
2023-04-10T04:12:16.065Z,96795.44
2023-04-10T04:15:00.299Z,96788.28
2023-04-10T04:17:47.819Z,96787.47
2023-04-10T04:20:39.689Z,96792.00
2023-04-10T04:23:30.287Z,96789.06
2023-04-10T04:26:17.051Z,96783.44
2023-04-10T04:29:03.208Z,96783.09
2023-04-10T04:31:51.534Z,96789.47
2023-04-10T04:34:37.688Z,96788.19
2023-04-10T04:37:20.526Z,96797.56
2023-04-10T04:40:12.072Z,96798.59
2023-04-10T04:42:59.708Z,96803.94
2023-04-10T04:45:47.429Z,96792.69
2023-04-10T04:48:33.657Z,96800.69
2023-04-10T04:51:11.867Z,96794.31
2023-04-10T04:53:46.774Z,96803.34
2023-04-10T04:56:35.189Z,96802.88
2023-04-10T04:59:32.069Z,96797.66
2023-04-10T05:02:16.068Z,96809.66
2023-04-10T05:04:57.040Z,96808.13
2023-04-10T05:07:32.953Z,96820.19
2023-04-10T05:10:13.860Z,96826.31
2023-04-10T05:12:43.140Z,96823.50
2023-04-10T05:15:24.669Z,96836.09
2023-04-10T05:18:10.889Z,96831.09
2023-04-10T05:20:58.313Z,96836.31
2023-04-10T05:23:52.685Z,96835.91
2023-04-10T05:26:38.141Z,96836.31
2023-04-10T05:29:21.512Z,96828.75
2023-04-10T05:32:18.145Z,96827.63
2023-04-10T05:35:01.701Z,96820.34
2023-04-10T05:37:36.270Z,96827.81
2023-04-10T05:40:23.382Z,96826.97
2023-04-10T05:42:57.824Z,96826.66
2023-04-10T05:45:48.436Z,96826.31
2023-04-10T05:48:36.369Z,96816.09
2023-04-10T05:51:18.199Z,96825.34
2023-04-10T05:54:05.703Z,96822.78
2023-04-10T05:56:49.970Z,96817.63
2023-04-10T05:59:37.952Z,96811.97
2023-04-10T06:02:24.624Z,96811.88
2023-04-10T06:04:52.773Z,96809.09
2023-04-10T06:07:20.882Z,96814.59
2023-04-10T06:09:50.416Z,96816.59
2023-04-10T06:12:18.211Z,96809.50
2023-04-10T06:14:45.900Z,96814.72
2023-04-10T06:17:13.604Z,96814.31
2023-04-10T06:19:42.074Z,96814.13
2023-04-10T06:22:09.807Z,96814.75
2023-04-10T06:24:37.529Z,96805.97
2023-04-10T06:27:07.910Z,96808.47
2023-04-10T06:29:35.938Z,96795.94
2023-04-10T06:32:03.965Z,96806.97
2023-04-10T06:34:36.116Z,96808.88
2023-04-10T06:37:06.962Z,96809.44
2023-04-10T06:39:35.090Z,96810.53
2023-04-10T06:42:03.519Z,96811.63
2023-04-10T06:44:46.009Z,96813.00
2023-04-10T06:47:13.786Z,96815.16
2023-04-10T06:49:41.526Z,96805.72
2023-04-10T06:52:11.286Z,96808.16
2023-04-10T06:54:39.224Z,96816.22
2023-04-10T06:57:08.077Z,96804.38
2023-04-10T06:59:35.922Z,96816.72
2023-04-10T07:02:05.511Z,96805.66
2023-04-10T07:04:33.287Z,96816.63
2023-04-10T07:07:01.218Z,96805.88
2023-04-10T07:09:30.342Z,96815.75
2023-04-10T07:11:58.113Z,96819.19
2023-04-10T07:14:25.851Z,96815.56
2023-04-10T07:16:53.981Z,96811.47
2023-04-10T07:19:23.054Z,96820.28
2023-04-10T07:21:51.007Z,96811.84
2023-04-10T07:24:18.810Z,96805.78
2023-04-10T07:26:46.816Z,96806.69
2023-04-10T07:29:15.546Z,96808.97
2023-04-10T07:31:43.490Z,96811.53
2023-04-10T07:34:12.008Z,96809.19
2023-04-10T07:36:41.214Z,96811.44
2023-04-10T07:39:08.885Z,96817.50
2023-04-10T07:41:36.590Z,96808.66
2023-04-10T07:44:04.422Z,96810.91
2023-04-10T07:46:32.429Z,96804.81
2023-04-10T07:49:00.278Z,96804.34
2023-04-10T07:51:28.905Z,96797.97
2023-04-10T07:53:57.986Z,96806.13
2023-04-10T07:56:25.834Z,96806.47
2023-04-10T07:58:53.685Z,96802.47
2023-04-10T08:01:21.614Z,96797.75
2023-04-10T08:03:49.396Z,96807.66
2023-04-10T08:06:17.190Z,96799.28
2023-04-10T08:08:44.936Z,96792.63
2023-04-10T08:11:26.070Z,96795.06
2023-04-10T08:13:53.964Z,96809.88
2023-04-10T08:16:25.936Z,96804.50
2023-04-10T08:18:54.290Z,96804.22
2023-04-10T08:21:23.223Z,96808.72
2023-04-10T08:23:51.901Z,96801.88
2023-04-10T08:26:20.128Z,96806.16
2023-04-10T08:28:50.744Z,96815.56
2023-04-10T08:31:19.154Z,96803.81
2023-04-10T08:33:47.191Z,96823.81
2023-04-10T08:36:18.365Z,96811.78
2023-04-10T08:38:48.229Z,96814.25
2023-04-10T08:41:17.785Z,96819.66
2023-04-10T08:43:46.146Z,96817.03
2023-04-10T08:46:15.617Z,96818.19
2023-04-10T08:48:48.318Z,96818.78
2023-04-10T08:51:20.562Z,96808.00
2023-04-10T08:53:59.314Z,96795.34
2023-04-10T08:56:27.882Z,96803.53
2023-04-10T08:58:56.048Z,96792.13
2023-04-10T09:01:26.188Z,96794.22
2023-04-10T09:03:54.362Z,96787.09
2023-04-10T09:06:23.455Z,96786.50
2023-04-10T09:08:51.143Z,96789.25
2023-04-10T09:11:18.793Z,96783.88
2023-04-10T09:13:46.917Z,96779.41
2023-04-10T09:16:15.427Z,96784.22
2023-04-10T09:18:47.121Z,96779.00
2023-04-10T09:21:16.782Z,96779.16
2023-04-10T09:23:45.846Z,96778.34
2023-04-10T09:26:28.224Z,96764.91
2023-04-10T09:29:00.773Z,96772.56
2023-04-10T09:31:33.382Z,96772.34
2023-04-10T09:34:14.345Z,96775.09
2023-04-10T09:36:42.954Z,96767.53
2023-04-10T09:39:11.553Z,96766.28
2023-04-10T09:41:49.696Z,96760.28
2023-04-10T09:44:19.679Z,96759.28
2023-04-10T09:46:49.599Z,96759.16
2023-04-10T09:49:18.775Z,96746.84
2023-04-10T09:51:47.356Z,96745.38
2023-04-10T09:54:15.267Z,96728.09
2023-04-10T09:56:47.096Z,96741.22
2023-04-10T09:59:15.829Z,96729.28
2023-04-10T10:01:44.690Z,96729.66
2023-04-10T10:04:15.636Z,96727.22
2023-04-10T10:06:45.076Z,96719.72
2023-04-10T10:09:12.851Z,96721.44
2023-04-10T10:11:40.748Z,96699.63
2023-04-10T10:14:13.322Z,96700.19
2023-04-10T10:16:45.223Z,96703.28
2023-04-10T10:19:20.394Z,96698.28
2023-04-10T10:21:49.813Z,96685.88
2023-04-10T10:24:19.662Z,96682.44
2023-04-10T10:26:48.763Z,96684.88
2023-04-10T10:29:18.507Z,96675.06
2023-04-10T10:31:48.075Z,96671.81
2023-04-10T10:34:17.211Z,96666.91
2023-04-10T10:36:45.051Z,96665.53
2023-04-10T10:39:27.897Z,96663.28
2023-04-10T10:42:03.227Z,96662.97
2023-04-10T10:44:41.678Z,96651.16
2023-04-10T10:47:16.811Z,96653.81
2023-04-10T10:49:58.434Z,96641.06
2023-04-10T10:52:41.622Z,96646.78
2023-04-10T10:55:35.114Z,96645.19
2023-04-10T10:58:05.159Z,96633.34
2023-04-10T11:01:12.601Z,96619.00
2023-04-10T11:03:41.482Z,96622.75
2023-04-10T11:06:13.969Z,96622.78
2023-04-10T11:08:54.865Z,96627.50
2023-04-10T11:11:26.734Z,96620.28
2023-04-10T11:17:03.246Z,96625.28
2023-04-10T11:19:31.276Z,96625.91
2023-04-10T11:22:07.832Z,96614.66
2023-04-10T11:25:08.501Z,96613.06
2023-04-10T11:27:48.564Z,96602.50
2023-04-10T11:30:30.506Z,96612.47
2023-04-10T11:32:59.157Z,96606.13
2023-04-10T11:35:31.336Z,96594.13
2023-04-10T11:38:19.000Z,96602.41
2023-04-10T11:41:02.415Z,96594.03
2023-04-10T11:43:35.774Z,96597.09
2023-04-10T11:46:06.166Z,96584.19
2023-04-10T11:48:34.591Z,96587.09
2023-04-10T11:51:09.561Z,96581.25
2023-04-10T11:53:37.329Z,96589.75
2023-04-10T11:56:07.499Z,96589.19
2023-04-10T11:58:36.947Z,96582.25
2023-04-10T12:01:20.377Z,96583.44
2023-04-10T12:03:56.892Z,96577.72
2023-04-10T12:06:27.575Z,96565.09
2023-04-10T12:08:55.492Z,96566.31
2023-04-10T12:11:25.077Z,96574.59
2023-04-10T12:13:55.335Z,96571.56
2023-04-10T12:16:23.565Z,96572.53
2023-04-10T12:18:52.553Z,96572.19
2023-04-10T12:21:21.774Z,96559.91
2023-04-10T12:23:49.516Z,96556.31
2023-04-10T12:26:18.956Z,96559.59
2023-04-10T12:28:52.878Z,96548.41
2023-04-10T12:31:29.557Z,96560.34
2023-04-10T12:33:58.041Z,96550.94
2023-04-10T12:36:28.970Z,96545.34
2023-04-10T12:38:57.416Z,96546.91
2023-04-10T12:41:28.395Z,96550.72
2023-04-10T12:44:09.397Z,96545.50
2023-04-10T12:46:38.977Z,96543.50
2023-04-10T12:49:11.625Z,96537.34
2023-04-10T12:51:43.237Z,96531.44
2023-04-10T12:54:11.234Z,96514.97
2023-04-10T12:56:43.536Z,96512.25
2023-04-10T12:59:12.532Z,96509.41
2023-04-10T13:01:41.694Z,96509.41
2023-04-10T13:04:09.616Z,96521.72
2023-04-10T13:06:44.006Z,96517.56
2023-04-10T13:09:12.522Z,96514.34
2023-04-10T13:11:40.285Z,96517.41
2023-04-10T13:14:08.049Z,96510.75
2023-04-10T13:16:36.293Z,96512.69
2023-04-10T13:19:05.497Z,96504.34
2023-04-10T13:21:33.196Z,96502.44
2023-04-10T13:24:00.897Z,96499.22
2023-04-10T13:26:28.594Z,96497.13
2023-04-10T13:28:56.560Z,96482.19
2023-04-10T13:31:24.524Z,96476.72
2023-04-10T13:33:52.230Z,96479.78
2023-04-10T13:36:21.380Z,96467.56
2023-04-10T13:38:49.139Z,96465.56
2023-04-10T13:41:16.863Z,96462.09
2023-04-10T13:43:44.570Z,96447.88
2023-04-10T13:46:12.308Z,96449.03
2023-04-10T13:48:41.357Z,96458.72
2023-04-10T13:51:09.456Z,96453.19
2023-04-10T13:53:38.527Z,96448.34
2023-04-10T13:56:07.398Z,96451.56
2023-04-10T13:58:35.162Z,96439.44
2023-04-10T14:01:03.126Z,96435.53
2023-04-10T14:03:31.169Z,96433.16
2023-04-10T14:05:59.075Z,96433.41
2023-04-10T14:08:27.012Z,96439.53
2023-04-10T14:10:56.083Z,96429.00
2023-04-10T14:13:23.810Z,96427.50
2023-04-10T14:15:53.617Z,96422.34
2023-04-10T14:18:21.345Z,96424.69
2023-04-10T14:20:49.074Z,96415.25
2023-04-10T14:23:18.308Z,96416.09
2023-04-10T14:25:46.499Z,96409.75
2023-04-10T14:28:17.921Z,96402.06
2023-04-10T14:30:45.812Z,96404.81
2023-04-10T14:33:13.818Z,96405.25
2023-04-10T14:35:41.605Z,96401.50
2023-04-10T14:38:09.287Z,96391.63
2023-04-10T14:40:37.467Z,96388.59
2023-04-10T14:43:05.196Z,96379.16
2023-04-10T14:45:34.633Z,96384.56
2023-04-10T14:48:02.646Z,96391.50
2023-04-10T14:50:32.765Z,96386.66
2023-04-10T14:53:00.780Z,96392.91
2023-04-10T14:55:30.001Z,96391.28
2023-04-10T14:57:58.791Z,96390.59
2023-04-10T15:00:29.485Z,96392.84
2023-04-10T15:02:58.743Z,96384.13
2023-04-10T15:05:26.952Z,96370.41
2023-04-10T15:07:54.785Z,96363.66
2023-04-10T15:10:22.714Z,96359.13
2023-04-10T15:12:50.435Z,96357.78
2023-04-10T15:15:18.486Z,96351.00
2023-04-10T15:17:46.206Z,96367.69
2023-04-10T15:20:15.477Z,96354.63
2023-04-10T15:22:44.942Z,96345.72
2023-04-10T15:25:12.795Z,96351.72
2023-04-10T15:27:40.784Z,96350.94
2023-04-10T15:30:09.433Z,96341.47
2023-04-10T15:32:38.268Z,96343.44
2023-04-10T15:35:06.883Z,96342.25
2023-04-10T15:37:37.533Z,96330.78
2023-04-10T15:40:06.255Z,96325.84
2023-04-10T15:42:35.736Z,96331.09
2023-04-10T15:45:03.638Z,96326.38
2023-04-10T15:47:31.412Z,96334.81
2023-04-10T15:49:59.667Z,96321.09
2023-04-10T15:52:29.172Z,96322.44
2023-04-10T15:54:58.530Z,96324.34
2023-04-10T15:57:26.281Z,96320.81
2023-04-10T15:59:56.294Z,96322.28
2023-04-10T16:02:24.233Z,96320.56
2023-04-10T16:04:52.289Z,96312.66
2023-04-10T16:07:20.929Z,96310.19
2023-04-10T16:09:48.646Z,96312.13
2023-04-10T16:12:17.687Z,96315.03
2023-04-10T16:14:45.394Z,96319.97
2023-04-10T16:17:13.087Z,96319.41
2023-04-10T16:19:40.794Z,96307.91
2023-04-10T16:22:08.520Z,96313.94
2023-04-10T16:24:36.232Z,96301.22
2023-04-10T16:27:03.952Z,96300.00
2023-04-10T16:29:33.006Z,96295.38
2023-04-10T16:32:00.731Z,96294.88
2023-04-10T16:34:28.569Z,96286.94
2023-04-10T16:36:56.248Z,96287.19
2023-04-10T16:39:23.913Z,96282.22
2023-04-10T16:41:51.610Z,96275.13
2023-04-10T16:44:19.281Z,96271.94
2023-04-10T16:46:48.442Z,96269.56
2023-04-10T16:49:16.554Z,96267.16
2023-04-10T16:51:44.244Z,96263.69
2023-04-10T16:54:12.101Z,96250.50
2023-04-10T16:56:39.770Z,96253.31
2023-04-10T16:59:07.469Z,96261.91
2023-04-10T17:01:39.633Z,96256.09
2023-04-10T17:04:09.275Z,96250.66
2023-04-10T17:06:37.278Z,96257.41
2023-04-10T17:09:05.438Z,96258.56
2023-04-10T17:11:33.120Z,96256.69
2023-04-10T17:14:00.783Z,96248.53
2023-04-10T17:16:28.619Z,96255.94
2023-04-10T17:18:56.860Z,96247.03
2023-04-10T17:21:27.089Z,96241.56
2023-04-10T17:23:55.123Z,96228.66
2023-04-10T17:26:23.631Z,96229.03
2023-04-10T17:28:51.498Z,96225.84
2023-04-10T17:31:19.243Z,96229.66
2023-04-10T17:33:46.960Z,96221.16
2023-04-10T17:36:15.322Z,96224.66
2023-04-10T17:38:44.405Z,96228.13
2023-04-10T17:41:15.936Z,96221.66
2023-04-10T17:43:43.606Z,96225.25
2023-04-10T17:46:14.048Z,96235.00
2023-04-10T17:48:41.809Z,96230.28
2023-04-10T17:51:09.987Z,96224.94
2023-04-10T17:53:37.837Z,96222.28
2023-04-10T17:56:08.089Z,96220.78
2023-04-10T17:58:35.850Z,96217.69
2023-04-10T18:01:05.306Z,96217.56
2023-04-10T18:03:33.617Z,96217.31
2023-04-10T18:06:01.422Z,96208.00
2023-04-10T18:08:29.109Z,96218.28
2023-04-10T18:10:56.766Z,96213.94
2023-04-10T18:13:28.194Z,96217.34
2023-04-10T18:15:55.950Z,96214.03
2023-04-10T18:18:25.713Z,96210.22
2023-04-10T18:20:56.119Z,96212.66
2023-04-10T18:23:25.741Z,96208.84
2023-04-10T18:25:55.493Z,96206.50
2023-04-10T18:28:23.317Z,96206.56
2023-04-10T18:30:56.547Z,96203.28
2023-04-10T18:33:25.123Z,96204.41
2023-04-10T18:35:55.761Z,96204.75
2023-04-10T18:38:23.666Z,96198.09
2023-04-10T18:40:53.848Z,96198.28
2023-04-10T18:43:21.608Z,96200.81
2023-04-10T18:45:49.926Z,96210.38
2023-04-10T18:48:18.989Z,96205.59
2023-04-10T18:50:49.029Z,96201.13
2023-04-10T18:53:16.730Z,96196.66
2023-04-10T18:55:53.621Z,96199.66
2023-04-10T18:58:23.536Z,96201.91
2023-04-10T19:00:51.434Z,96196.16
2023-04-10T19:03:20.754Z,96184.03
2023-04-10T19:05:50.912Z,96181.50
2023-04-10T19:08:18.745Z,96176.69
2023-04-10T19:10:46.430Z,96167.00
2023-04-10T19:13:16.285Z,96163.81
2023-04-10T19:15:46.625Z,96163.69
2023-04-10T19:18:15.935Z,96173.34
2023-04-10T19:20:53.150Z,96179.56
2023-04-10T19:23:22.710Z,96172.59
2023-04-10T19:25:55.215Z,96172.88
2023-04-10T19:28:24.440Z,96178.00
2023-04-10T19:30:54.990Z,96161.44
2023-04-10T19:33:22.786Z,96157.63
2023-04-10T19:35:51.888Z,96159.22
2023-04-10T19:38:19.626Z,96157.97
2023-04-10T19:40:52.073Z,96163.38
2023-04-10T19:43:27.560Z,96169.41
2023-04-10T19:45:56.170Z,96178.47
2023-04-10T19:48:25.178Z,96177.19
2023-04-10T19:50:55.090Z,96178.63
2023-04-10T19:53:22.901Z,96181.97
2023-04-10T19:55:50.634Z,96187.06
2023-04-10T19:58:35.906Z,96184.19
2023-04-10T20:01:12.546Z,96187.19
2023-04-10T20:03:40.508Z,96177.91
2023-04-10T20:06:13.161Z,96173.91
2023-04-10T20:08:40.994Z,96171.72
2023-04-10T20:11:10.483Z,96171.72
2023-04-10T20:13:40.880Z,96171.78
2023-04-10T20:16:11.374Z,96152.63
2023-04-10T20:18:39.961Z,96157.69
2023-04-10T20:21:09.902Z,96160.03
2023-04-10T20:23:38.538Z,96160.19
2023-04-10T20:26:06.618Z,96155.34
2023-04-10T20:28:36.463Z,96154.94
2023-04-10T20:31:06.344Z,96159.75
2023-04-10T20:33:34.253Z,96161.72
2023-04-10T20:36:07.875Z,96155.84
2023-04-10T20:38:37.311Z,96158.19
2023-04-10T20:41:05.104Z,96150.19
2023-04-10T20:43:32.896Z,96159.84
2023-04-10T20:46:04.013Z,96151.78
2023-04-10T20:48:31.954Z,96152.06
2023-04-10T20:50:59.666Z,96137.72
2023-04-10T20:53:32.209Z,96143.66
2023-04-10T20:56:02.536Z,96143.66
2023-04-10T20:58:33.658Z,96136.59
2023-04-10T21:01:01.416Z,96149.97
2023-04-10T21:03:31.349Z,96135.56
2023-04-10T21:05:59.176Z,96138.56
2023-04-10T21:08:28.105Z,96146.66
2023-04-10T21:10:58.663Z,96146.22
2023-04-10T21:13:27.821Z,96142.44
2023-04-10T21:15:55.607Z,96136.84
2023-04-10T21:18:24.858Z,96143.16
2023-04-10T21:20:52.607Z,96139.16
2023-04-10T21:23:20.333Z,96140.59
2023-04-10T21:25:52.591Z,96140.59
2023-04-10T21:28:22.837Z,96131.59
2023-04-10T21:30:54.144Z,96128.25
2023-04-10T21:33:21.935Z,96130.34
2023-04-10T21:35:49.726Z,96130.94
2023-04-10T21:38:18.204Z,96128.75
2023-04-10T21:40:53.603Z,96123.84
2023-04-10T21:43:21.811Z,96106.72
2023-04-10T21:45:49.818Z,96104.81
2023-04-10T21:48:19.430Z,96108.31
2023-04-10T21:50:47.313Z,96097.38
2023-04-10T21:53:15.032Z,96093.75
2023-04-10T21:55:43.074Z,96086.75
2023-04-10T21:58:10.864Z,96089.00
2023-04-10T22:00:38.599Z,96092.19
2023-04-10T22:03:09.554Z,96081.97
2023-04-10T22:05:38.709Z,96086.22
2023-04-10T22:08:07.557Z,96079.22
2023-04-10T22:10:35.599Z,96076.03
2023-04-10T22:13:03.283Z,96071.44
2023-04-10T22:15:31.084Z,96080.63
2023-04-10T22:17:58.844Z,96077.44
2023-04-10T22:20:27.669Z,96086.22
2023-04-10T22:22:57.019Z,96083.81
2023-04-10T22:25:25.209Z,96075.22
2023-04-10T22:27:52.931Z,96078.91
2023-04-10T22:30:21.027Z,96072.59
2023-04-10T22:32:49.999Z,96076.25
2023-04-10T22:35:17.877Z,96074.53
2023-04-10T22:37:45.627Z,96079.50
2023-04-10T22:40:14.795Z,96071.09
2023-04-10T22:42:45.411Z,96072.69
2023-04-10T22:45:16.383Z,96070.31
2023-04-10T22:47:44.100Z,96070.47
2023-04-10T22:50:11.937Z,96071.44
2023-04-10T22:52:39.902Z,96065.75
2023-04-10T22:55:08.818Z,96060.69
2023-04-10T22:57:38.385Z,96055.59
2023-04-10T23:00:08.927Z,96047.69
2023-04-10T23:02:39.587Z,96038.94
2023-04-10T23:05:08.186Z,96037.53
2023-04-10T23:07:35.967Z,96032.63
2023-04-10T23:10:04.275Z,96032.28
2023-04-10T23:12:32.026Z,96034.06
2023-04-10T23:15:01.210Z,96039.47
2023-04-10T23:17:31.115Z,96037.25
2023-04-10T23:19:58.820Z,96034.25
2023-04-10T23:22:28.663Z,96034.41
2023-04-10T23:24:56.760Z,96029.66
2023-04-10T23:27:24.911Z,96021.59
2023-04-10T23:29:52.769Z,96016.66
2023-04-10T23:32:22.065Z,96016.38
2023-04-10T23:34:49.880Z,96007.19
2023-04-10T23:37:17.579Z,96001.28
2023-04-10T23:39:45.661Z,96009.59
2023-04-10T23:42:13.352Z,96007.53
2023-04-10T23:44:41.190Z,95996.09
2023-04-10T23:47:09.746Z,95977.94
2023-04-10T23:49:39.965Z,95958.69
2023-04-10T23:52:09.929Z,95964.09
2023-04-10T23:54:38.885Z,95960.72
2023-04-10T23:57:09.479Z,95961.22
2023-04-10T23:59:39.640Z,95951.53
